KABY/ABY METAR and TAF weather

Enter ICAO airport designator
Station Type Date Time Source
KABY METAR 2019/10/18 10:53 UTC NOAA

KABY 181053Z AUTO 00000KT 10SM CLR 12/08 A2997 RMK AO2 SLP148 T01220083


Station Type Date Time Source
KABY Decoded METAR 2019/10/18 10:53 UTC NOAA

ALBANY SOUTHWEST GEORGIA, GA, United States (KABY) 31-32N 084-12W 58M
Oct 18, 2019 - 06:53 AM EDT / 2019.10.18 1053 UTC
Wind: Calm:0
Visibility: 10 mile(s):0
Sky conditions: clear
Temperature: 54.0 F (12.2 C)
Dew Point: 46.9 F (8.3 C)
Relative Humidity: 77%
Pressure (altimeter): 29.97 in. Hg (1014 hPa)
ob: KABY 181053Z AUTO 00000KT 10SM CLR 12/08 A2997 RMK AO2 SLP148 T01220083
cycle: 11

Station Type Date Time Source
KABY TAF 2019/10/18 06:22 UTC NOAA

TAF KABY 180520Z 1806/1906 33005KT P6SM FEW250
FM181300 08008KT P6SM SCT250
FM182300 08010KT P6SM OVC100
FM190500 09015G20KT P6SM RA BKN030

Example: see airport list